sensor_id;sensor_type;location;lat;lon;timestamp;pressure;altitude;pressure_sealevel;temperature;humidity
6514;BME280;3290;47.716;9.070;2022-09-03T00:01:06;96559.72;;;18.77;100.00
6514;BME280;3290;47.716;9.070;2022-09-03T00:03:39;96563.50;;;18.66;100.00
6514;BME280;3290;47.716;9.070;2022-09-03T00:06:35;96572.75;;;18.73;100.00
6514;BME280;3290;47.716;9.070;2022-09-03T00:09:04;96571.00;;;18.44;100.00
6514;BME280;3290;47.716;9.070;2022-09-03T00:12:04;96575.25;;;18.55;100.00
6514;BME280;3290;47.716;9.070;2022-09-03T00:14:40;96567.28;;;18.50;100.00
6514;BME280;3290;47.716;9.070;2022-09-03T00:17:13;96575.19;;;18.65;100.00
6514;BME280;3290;47.716;9.070;2022-09-03T00:19:45;96571.94;;;18.78;100.00
6514;BME280;3290;47.716;9.070;2022-09-03T00:22:19;96566.59;;;18.83;100.00
6514;BME280;3290;47.716;9.070;2022-09-03T00:24:47;96568.78;;;18.71;100.00
6514;BME280;3290;47.716;9.070;2022-09-03T00:27:16;96574.88;;;18.76;100.00
6514;BME280;3290;47.716;9.070;2022-09-03T00:29:51;96576.28;;;18.54;100.00
6514;BME280;3290;47.716;9.070;2022-09-03T00:32:24;96564.13;;;18.43;100.00
6514;BME280;3290;47.716;9.070;2022-09-03T00:34:56;96562.78;;;18.45;100.00
6514;BME280;3290;47.716;9.070;2022-09-03T00:37:26;96572.13;;;18.38;100.00
6514;BME280;3290;47.716;9.070;2022-09-03T00:39:53;96565.19;;;18.47;100.00
6514;BME280;3290;47.716;9.070;2022-09-03T00:51:08;96592.88;;;18.79;100.00
6514;BME280;3290;47.716;9.070;2022-09-03T01:05:26;96606.72;;;19.29;100.00
6514;BME280;3290;47.716;9.070;2022-09-03T01:13:47;96625.81;;;19.31;100.00
6514;BME280;3290;47.716;9.070;2022-09-03T01:16:24;96625.38;;;19.14;100.00
6514;BME280;3290;47.716;9.070;2022-09-03T01:18:55;96629.09;;;19.18;100.00
6514;BME280;3290;47.716;9.070;2022-09-03T01:29:33;96669.56;;;18.95;100.00
6514;BME280;3290;47.716;9.070;2022-09-03T01:32:18;96655.41;;;19.20;100.00
6514;BME280;3290;47.716;9.070;2022-09-03T01:38:19;96651.09;;;19.66;100.00
6514;BME280;3290;47.716;9.070;2022-09-03T01:45:52;96635.66;;;19.30;100.00
6514;BME280;3290;47.716;9.070;2022-09-03T01:59:30;96627.72;;;18.68;100.00
6514;BME280;3290;47.716;9.070;2022-09-03T02:02:35;96645.78;;;18.66;100.00
6514;BME280;3290;47.716;9.070;2022-09-03T02:05:10;96645.22;;;18.69;100.00
6514;BME280;3290;47.716;9.070;2022-09-03T02:07:42;96639.72;;;18.55;100.00
6514;BME280;3290;47.716;9.070;2022-09-03T02:10:18;96632.28;;;18.52;100.00
6514;BME280;3290;47.716;9.070;2022-09-03T02:12:57;96629.03;;;18.70;100.00
6514;BME280;3290;47.716;9.070;2022-09-03T02:15:24;96626.94;;;18.67;100.00
6514;BME280;3290;47.716;9.070;2022-09-03T02:17:53;96620.25;;;18.80;100.00
6514;BME280;3290;47.716;9.070;2022-09-03T02:20:23;96622.44;;;18.63;100.00
6514;BME280;3290;47.716;9.070;2022-09-03T02:22:51;96626.72;;;18.44;100.00
6514;BME280;3290;47.716;9.070;2022-09-03T02:25:19;96631.44;;;18.62;100.00
6514;BME280;3290;47.716;9.070;2022-09-03T02:27:48;96629.88;;;18.61;100.00
6514;BME280;3290;47.716;9.070;2022-09-03T02:30:14;96633.56;;;18.60;100.00
6514;BME280;3290;47.716;9.070;2022-09-03T02:32:39;96630.94;;;18.60;100.00
6514;BME280;3290;47.716;9.070;2022-09-03T02:35:05;96632.31;;;18.43;100.00
6514;BME280;3290;47.716;9.070;2022-09-03T02:37:31;96631.00;;;18.35;100.00
6514;BME280;3290;47.716;9.070;2022-09-03T02:39:56;96628.09;;;18.32;100.00
6514;BME280;3290;47.716;9.070;2022-09-03T02:42:22;96626.72;;;18.44;100.00
6514;BME280;3290;47.716;9.070;2022-09-03T02:44:51;96632.28;;;18.52;100.00
6514;BME280;3290;47.716;9.070;2022-09-03T02:47:18;96620.41;;;18.35;100.00
6514;BME280;3290;47.716;9.070;2022-09-03T02:49:47;96633.13;;;18.48;100.00
6514;BME280;3290;47.716;9.070;2022-09-03T02:52:13;96632.03;;;18.49;100.00
6514;BME280;3290;47.716;9.070;2022-09-03T02:54:38;96633.97;;;18.19;100.00
6514;BME280;3290;47.716;9.070;2022-09-03T02:57:09;96641.59;;;18.45;100.00
6514;BME280;3290;47.716;9.070;2022-09-03T02:59:35;96634.44;;;18.41;100.00
6514;BME280;3290;47.716;9.070;2022-09-03T03:02:01;96649.03;;;18.43;100.00
6514;BME280;3290;47.716;9.070;2022-09-03T03:04:29;96650.63;;;18.44;100.00
6514;BME280;3290;47.716;9.070;2022-09-03T03:06:54;96638.44;;;18.33;100.00
6514;BME280;3290;47.716;9.070;2022-09-03T03:09:20;96640.03;;;18.34;100.00
6514;BME280;3290;47.716;9.070;2022-09-03T03:11:45;96640.06;;;18.29;100.00
6514;BME280;3290;47.716;9.070;2022-09-03T03:14:11;96647.16;;;18.48;100.00
6514;BME280;3290;47.716;9.070;2022-09-03T03:16:36;96642.69;;;18.39;100.00
6514;BME280;3290;47.716;9.070;2022-09-03T03:19:02;96641.09;;;18.38;100.00
6514;BME280;3290;47.716;9.070;2022-09-03T03:21:28;96642.66;;;18.49;100.00
6514;BME280;3290;47.716;9.070;2022-09-03T03:23:53;96645.34;;;18.34;100.00
6514;BME280;3290;47.716;9.070;2022-09-03T03:26:20;96649.31;;;18.37;100.00
6514;BME280;3290;47.716;9.070;2022-09-03T03:28:47;96651.69;;;18.43;100.00
6514;BME280;3290;47.716;9.070;2022-09-03T03:31:22;96643.47;;;18.35;100.00
6514;BME280;3290;47.716;9.070;2022-09-03T03:33:52;96642.19;;;18.32;100.00
6514;BME280;3290;47.716;9.070;2022-09-03T03:36:18;96658.63;;;18.39;100.00
6514;BME280;3290;47.716;9.070;2022-09-03T03:38:45;96660.69;;;18.52;100.00
6514;BME280;3290;47.716;9.070;2022-09-03T03:41:11;96659.06;;;18.56;100.00
6514;BME280;3290;47.716;9.070;2022-09-03T03:43:37;96665.44;;;18.60;100.00
6514;BME280;3290;47.716;9.070;2022-09-03T03:46:03;96672.56;;;18.74;100.00
6514;BME280;3290;47.716;9.070;2022-09-03T03:48:29;96680.22;;;18.85;100.00
6514;BME280;3290;47.716;9.070;2022-09-03T03:50:59;96686.13;;;18.73;100.00
6514;BME280;3290;47.716;9.070;2022-09-03T03:53:25;96690.84;;;18.85;100.00
6514;BME280;3290;47.716;9.070;2022-09-03T03:55:55;96683.91;;;18.89;100.00
6514;BME280;3290;47.716;9.070;2022-09-03T03:58:21;96687.44;;;18.70;100.00
6514;BME280;3290;47.716;9.070;2022-09-03T04:00:47;96687.19;;;18.62;100.00
6514;BME280;3290;47.716;9.070;2022-09-03T04:03:13;96685.84;;;18.69;100.00
6514;BME280;3290;47.716;9.070;2022-09-03T04:05:39;96696.47;;;18.74;100.00
6514;BME280;3290;47.716;9.070;2022-09-03T04:08:04;96695.63;;;18.79;100.00
6514;BME280;3290;47.716;9.070;2022-09-03T04:10:30;96702.31;;;18.71;100.00
6514;BME280;3290;47.716;9.070;2022-09-03T04:12:55;96704.69;;;18.68;100.00
6514;BME280;3290;47.716;9.070;2022-09-03T04:15:20;96709.47;;;18.71;100.00
6514;BME280;3290;47.716;9.070;2022-09-03T04:17:46;96710.03;;;18.58;100.00
6514;BME280;3290;47.716;9.070;2022-09-03T04:20:11;96713.19;;;18.60;100.00
6514;BME280;3290;47.716;9.070;2022-09-03T04:22:37;96703.16;;;18.47;100.00
6514;BME280;3290;47.716;9.070;2022-09-03T04:25:02;96714.03;;;18.41;100.00
6514;BME280;3290;47.716;9.070;2022-09-03T04:27:28;96713.81;;;18.27;100.00
6514;BME280;3290;47.716;9.070;2022-09-03T04:29:53;96716.19;;;18.19;100.00
6514;BME280;3290;47.716;9.070;2022-09-03T04:32:19;96714.06;;;18.26;100.00
6514;BME280;3290;47.716;9.070;2022-09-03T04:35:03;96718.28;;;18.27;100.00
6514;BME280;3290;47.716;9.070;2022-09-03T04:37:28;96716.97;;;18.29;100.00
6514;BME280;3290;47.716;9.070;2022-09-03T04:39:53;96721.72;;;18.47;100.00
6514;BME280;3290;47.716;9.070;2022-09-03T04:42:19;96719.84;;;18.43;100.00
6514;BME280;3290;47.716;9.070;2022-09-03T04:44:44;96721.16;;;18.65;100.00
6514;BME280;3290;47.716;9.070;2022-09-03T04:47:10;96718.50;;;18.60;100.00
6514;BME280;3290;47.716;9.070;2022-09-03T04:49:35;96718.44;;;18.89;100.00
6514;BME280;3290;47.716;9.070;2022-09-03T04:52:01;96718.22;;;18.76;100.00
6514;BME280;3290;47.716;9.070;2022-09-03T04:54:27;96725.94;;;18.53;100.00
6514;BME280;3290;47.716;9.070;2022-09-03T04:56:52;96711.66;;;18.39;100.00
6514;BME280;3290;47.716;9.070;2022-09-03T04:59:18;96715.94;;;18.15;100.00
6514;BME280;3290;47.716;9.070;2022-09-03T05:01:43;96716.72;;;18.36;100.00
6514;BME280;3290;47.716;9.070;2022-09-03T05:04:08;96706.91;;;18.26;100.00
6514;BME280;3290;47.716;9.070;2022-09-03T05:06:35;96709.00;;;17.95;100.00
6514;BME280;3290;47.716;9.070;2022-09-03T05:09:01;96715.38;;;18.08;100.00
6514;BME280;3290;47.716;9.070;2022-09-03T05:11:27;96712.72;;;18.33;100.00
6514;BME280;3290;47.716;9.070;2022-09-03T05:13:55;96711.66;;;18.19;100.00
6514;BME280;3290;47.716;9.070;2022-09-03T05:16:22;96710.06;;;18.28;100.00
6514;BME280;3290;47.716;9.070;2022-09-03T05:18:51;96715.94;;;18.25;100.00
6514;BME280;3290;47.716;9.070;2022-09-03T05:21:18;96712.19;;;18.31;100.00
6514;BME280;3290;47.716;9.070;2022-09-03T05:23:45;96712.72;;;18.33;100.00
6514;BME280;3290;47.716;9.070;2022-09-03T05:26:15;96716.41;;;18.42;100.00
6514;BME280;3290;47.716;9.070;2022-09-03T05:28:42;96719.91;;;18.38;100.00
6514;BME280;3290;47.716;9.070;2022-09-03T05:31:09;96721.75;;;18.32;100.00
6514;BME280;3290;47.716;9.070;2022-09-03T05:33:37;96719.59;;;18.49;100.00
6514;BME280;3290;47.716;9.070;2022-09-03T05:36:04;96714.81;;;18.46;100.00
6514;BME280;3290;47.716;9.070;2022-09-03T05:38:30;96707.94;;;18.55;100.00
6514;BME280;3290;47.716;9.070;2022-09-03T05:41:03;96709.25;;;18.57;100.00
6514;BME280;3290;47.716;9.070;2022-09-03T05:43:29;96716.66;;;18.60;100.00
6514;BME280;3290;47.716;9.070;2022-09-03T05:45:59;96719.31;;;18.60;100.00
6514;BME280;3290;47.716;9.070;2022-09-03T05:48:28;96725.97;;;18.48;100.00
6514;BME280;3290;47.716;9.070;2022-09-03T05:51:05;96723.56;;;18.56;100.00
6514;BME280;3290;47.716;9.070;2022-09-03T05:53:33;96723.81;;;18.60;100.00
6514;BME280;3290;47.716;9.070;2022-09-03T05:56:01;96733.63;;;18.74;100.00
6514;BME280;3290;47.716;9.070;2022-09-03T05:58:33;96733.59;;;18.84;100.00
6514;BME280;3290;47.716;9.070;2022-09-03T06:01:01;96729.63;;;18.77;100.00
6514;BME280;3290;47.716;9.070;2022-09-03T06:03:33;96729.13;;;18.70;100.00
6514;BME280;3290;47.716;9.070;2022-09-03T06:05:59;96723.28;;;18.78;100.00
6514;BME280;3290;47.716;9.070;2022-09-03T06:08:24;96724.81;;;18.88;100.00
6514;BME280;3290;47.716;9.070;2022-09-03T06:10:57;96728.53;;;19.02;100.00
6514;BME280;3290;47.716;9.070;2022-09-03T06:13:22;96721.59;;;18.96;100.00
6514;BME280;3290;47.716;9.070;2022-09-03T06:15:48;96722.66;;;19.05;100.00
6514;BME280;3290;47.716;9.070;2022-09-03T06:18:13;96732.22;;;19.01;100.00
6514;BME280;3290;47.716;9.070;2022-09-03T06:20:38;96731.63;;;19.19;100.00
6514;BME280;3290;47.716;9.070;2022-09-03T06:23:04;96729.53;;;19.16;100.00
6514;BME280;3290;47.716;9.070;2022-09-03T06:25:29;96720.44;;;19.27;100.00
6514;BME280;3290;47.716;9.070;2022-09-03T06:27:56;96724.47;;;19.20;100.00
6514;BME280;3290;47.716;9.070;2022-09-03T06:30:21;96720.94;;;19.39;100.00
6514;BME280;3290;47.716;9.070;2022-09-03T06:32:48;96720.88;;;19.44;100.00
6514;BME280;3290;47.716;9.070;2022-09-03T06:35:14;96706.00;;;19.48;100.00
6514;BME280;3290;47.716;9.070;2022-09-03T06:37:41;96709.25;;;19.30;100.00
6514;BME280;3290;47.716;9.070;2022-09-03T06:40:08;96698.94;;;19.24;100.00
6514;BME280;3290;47.716;9.070;2022-09-03T06:42:41;96701.25;;;19.35;100.00
6514;BME280;3290;47.716;9.070;2022-09-03T06:45:09;96698.59;;;19.35;100.00
6514;BME280;3290;47.716;9.070;2022-09-03T06:47:35;96691.16;;;19.37;100.00
6514;BME280;3290;47.716;9.070;2022-09-03T06:50:01;96686.91;;;19.41;100.00
6514;BME280;3290;47.716;9.070;2022-09-03T06:52:29;96689.91;;;19.67;100.00
6514;BME280;3290;47.716;9.070;2022-09-03T06:54:55;96687.31;;;19.53;100.00
6514;BME280;3290;47.716;9.070;2022-09-03T06:57:20;96683.22;;;19.70;100.00
6514;BME280;3290;47.716;9.070;2022-09-03T06:59:46;96686.31;;;19.92;100.00
6514;BME280;3290;47.716;9.070;2022-09-03T07:02:11;96690.00;;;19.96;100.00
6514;BME280;3290;47.716;9.070;2022-09-03T07:04:37;96690.66;;;20.11;100.00
6514;BME280;3290;47.716;9.070;2022-09-03T07:07:02;96689.25;;;19.90;100.00
6514;BME280;3290;47.716;9.070;2022-09-03T07:09:28;96691.34;;;19.93;100.00
6514;BME280;3290;47.716;9.070;2022-09-03T07:11:53;96690.66;;;20.11;100.00
6514;BME280;3290;47.716;9.070;2022-09-03T07:14:20;96684.94;;;20.50;100.00
6514;BME280;3290;47.716;9.070;2022-09-03T07:16:46;96685.06;;;20.41;100.00
6514;BME280;3290;47.716;9.070;2022-09-03T07:19:12;96679.78;;;20.36;100.00
6514;BME280;3290;47.716;9.070;2022-09-03T07:21:38;96675.34;;;20.54;100.00
6514;BME280;3290;47.716;9.070;2022-09-03T07:24:07;96665.09;;;20.15;100.00
6514;BME280;3290;47.716;9.070;2022-09-03T07:26:36;96668.44;;;20.53;100.00
6514;BME280;3290;47.716;9.070;2022-09-03T07:29:03;96682.41;;;20.69;99.48
6514;BME280;3290;47.716;9.070;2022-09-03T07:31:31;96666.75;;;21.09;95.69
6514;BME280;3290;47.716;9.070;2022-09-03T07:33:59;96652.97;;;21.02;100.00
6514;BME280;3290;47.716;9.070;2022-09-03T07:36:27;96656.97;;;21.23;99.66
6514;BME280;3290;47.716;9.070;2022-09-03T07:38:55;96663.06;;;21.46;98.12
6514;BME280;3290;47.716;9.070;2022-09-03T07:41:21;96658.41;;;21.33;97.97
6514;BME280;3290;47.716;9.070;2022-09-03T07:43:47;96661.03;;;21.15;98.68
6514;BME280;3290;47.716;9.070;2022-09-03T07:46:21;96650.13;;;21.35;100.00
6514;BME280;3290;47.716;9.070;2022-09-03T07:48:57;96647.56;;;21.48;100.00
6514;BME280;3290;47.716;9.070;2022-09-03T07:51:26;96654.97;;;22.19;97.24
6514;BME280;3290;47.716;9.070;2022-09-03T07:53:54;96662.91;;;22.38;98.46
6514;BME280;3290;47.716;9.070;2022-09-03T07:56:20;96660.66;;;22.31;96.15
6514;BME280;3290;47.716;9.070;2022-09-03T07:58:46;96667.13;;;21.94;97.74
6514;BME280;3290;47.716;9.070;2022-09-03T08:01:15;96667.38;;;21.79;98.22
6514;BME280;3290;47.716;9.070;2022-09-03T08:03:43;96671.75;;;22.51;95.88
6514;BME280;3290;47.716;9.070;2022-09-03T08:06:09;96674.66;;;22.23;97.08
6514;BME280;3290;47.716;9.070;2022-09-03T08:08:35;96679.75;;;22.38;95.65
6514;BME280;3290;47.716;9.070;2022-09-03T08:11:09;96674.78;;;23.03;93.37
6514;BME280;3290;47.716;9.070;2022-09-03T08:13:54;96680.09;;;23.17;89.42
6514;BME280;3290;47.716;9.070;2022-09-03T08:16:21;96684.47;;;23.26;83.87
6514;BME280;3290;47.716;9.070;2022-09-03T08:18:47;96674.94;;;23.20;86.84
6514;BME280;3290;47.716;9.070;2022-09-03T08:21:16;96681.56;;;23.84;82.55
6514;BME280;3290;47.716;9.070;2022-09-03T08:23:44;96680.13;;;24.00;82.69
6514;BME280;3290;47.716;9.070;2022-09-03T08:26:11;96686.56;;;24.64;78.71
6514;BME280;3290;47.716;9.070;2022-09-03T08:28:37;96680.38;;;24.34;82.29
6514;BME280;3290;47.716;9.070;2022-09-03T08:31:07;96676.00;;;23.59;81.72
6514;BME280;3290;47.716;9.070;2022-09-03T08:33:47;96680.84;;;24.14;82.42
6514;BME280;3290;47.716;9.070;2022-09-03T08:36:15;96681.78;;;23.74;80.31
6514;BME280;3290;47.716;9.070;2022-09-03T08:38:42;96679.06;;;23.66;80.43
6514;BME280;3290;47.716;9.070;2022-09-03T08:41:19;96682.47;;;24.37;75.51
6514;BME280;3290;47.716;9.070;2022-09-03T08:44:19;96686.56;;;24.21;78.64
6514;BME280;3290;47.716;9.070;2022-09-03T08:49:42;96692.94;;;24.55;74.60
6514;BME280;3290;47.716;9.070;2022-09-03T08:52:30;96693.28;;;24.54;74.42
6514;BME280;3290;47.716;9.070;2022-09-03T08:55:13;96697.13;;;23.61;76.99
6514;BME280;3290;47.716;9.070;2022-09-03T08:57:45;96696.06;;;24.05;76.80
6514;BME280;3290;47.716;9.070;2022-09-03T09:00:11;96693.38;;;24.27;76.19
6514;BME280;3290;47.716;9.070;2022-09-03T09:05:23;96708.03;;;25.03;72.47
6514;BME280;3290;47.716;9.070;2022-09-03T09:07:54;96700.69;;;24.13;72.78
6514;BME280;3290;47.716;9.070;2022-09-03T09:13:21;96701.34;;;25.39;70.03
6514;BME280;3290;47.716;9.070;2022-09-03T09:16:17;96702.56;;;26.39;66.06
6514;BME280;3290;47.716;9.070;2022-09-03T09:21:16;96701.41;;;26.65;64.45
6514;BME280;3290;47.716;9.070;2022-09-03T09:23:47;96706.63;;;26.61;65.79
6514;BME280;3290;47.716;9.070;2022-09-03T09:26:16;96709.06;;;26.46;67.53
6514;BME280;3290;47.716;9.070;2022-09-03T09:28:44;96705.13;;;25.30;68.99
6514;BME280;3290;47.716;9.070;2022-09-03T09:31:13;96691.81;;;25.97;68.72
6514;BME280;3290;47.716;9.070;2022-09-03T09:33:43;96699.25;;;25.83;67.27
6514;BME280;3290;47.716;9.070;2022-09-03T09:36:12;96702.00;;;26.79;65.20
6514;BME280;3290;47.716;9.070;2022-09-03T09:38:42;96703.81;;;25.82;66.63
6514;BME280;3290;47.716;9.070;2022-09-03T09:43:35;96693.41;;;26.15;66.85
6514;BME280;3290;47.716;9.070;2022-09-03T09:49:01;96687.78;;;27.15;64.62
6514;BME280;3290;47.716;9.070;2022-09-03T09:51:27;96694.44;;;27.18;63.27
6514;BME280;3290;47.716;9.070;2022-09-03T09:54:25;96693.41;;;26.31;64.55
6514;BME280;3290;47.716;9.070;2022-09-03T09:57:22;96693.81;;;25.58;68.07
6514;BME280;3290;47.716;9.070;2022-09-03T09:59:45;96696.31;;;25.37;71.41
6514;BME280;3290;47.716;9.070;2022-09-03T10:02:13;96705.84;;;24.75;71.74
6514;BME280;3290;47.716;9.070;2022-09-03T10:04:40;96715.19;;;24.55;73.83
6514;BME280;3290;47.716;9.070;2022-09-03T10:07:29;96724.31;;;24.76;72.05
6514;BME280;3290;47.716;9.070;2022-09-03T10:10:04;96739.63;;;24.54;75.35
6514;BME280;3290;47.716;9.070;2022-09-03T10:12:38;96778.56;;;23.68;78.58
6514;BME280;3290;47.716;9.070;2022-09-03T10:18:16;96803.66;;;22.37;94.57
6514;BME280;3290;47.716;9.070;2022-09-03T10:26:47;96806.41;;;22.32;100.00
6514;BME280;3290;47.716;9.070;2022-09-03T10:29:19;96815.34;;;22.41;100.00
6514;BME280;3290;47.716;9.070;2022-09-03T10:34:51;96815.84;;;22.43;100.00
6514;BME280;3290;47.716;9.070;2022-09-03T10:37:46;96814.00;;;22.25;100.00
6514;BME280;3290;47.716;9.070;2022-09-03T10:40:24;96811.75;;;22.51;100.00
6514;BME280;3290;47.716;9.070;2022-09-03T10:46:01;96820.84;;;22.31;100.00
6514;BME280;3290;47.716;9.070;2022-09-03T10:51:24;96812.38;;;22.06;100.00
6514;BME280;3290;47.716;9.070;2022-09-03T10:56:31;96790.09;;;22.15;100.00
6514;BME280;3290;47.716;9.070;2022-09-03T11:07:07;96776.59;;;22.75;100.00
6514;BME280;3290;47.716;9.070;2022-09-03T11:09:37;96772.78;;;23.48;99.51
6514;BME280;3290;47.716;9.070;2022-09-03T11:12:23;96770.50;;;23.81;100.00
6514;BME280;3290;47.716;9.070;2022-09-03T11:14:56;96750.47;;;24.14;93.67
6514;BME280;3290;47.716;9.070;2022-09-03T11:17:27;96753.63;;;24.29;92.64
6514;BME280;3290;47.716;9.070;2022-09-03T11:20:33;96755.63;;;24.24;91.13
6514;BME280;3290;47.716;9.070;2022-09-03T11:23:00;96744.06;;;23.80;91.51
6514;BME280;3290;47.716;9.070;2022-09-03T11:25:31;96748.78;;;23.83;92.14
6514;BME280;3290;47.716;9.070;2022-09-03T11:30:52;96763.50;;;23.32;85.99
6514;BME280;3290;47.716;9.070;2022-09-03T11:33:23;96764.09;;;23.42;90.07
6514;BME280;3290;47.716;9.070;2022-09-03T11:35:55;96762.28;;;23.11;88.92
6514;BME280;3290;47.716;9.070;2022-09-03T11:38:22;96770.41;;;22.93;86.68
6514;BME280;3290;47.716;9.070;2022-09-03T11:41:13;96756.19;;;23.24;83.51
6514;BME280;3290;47.716;9.070;2022-09-03T11:43:41;96764.09;;;23.29;85.05
6514;BME280;3290;47.716;9.070;2022-09-03T11:48:50;96764.25;;;23.86;84.69
6514;BME280;3290;47.716;9.070;2022-09-03T11:54:02;96768.66;;;23.69;81.02
6514;BME280;3290;47.716;9.070;2022-09-03T11:56:30;96769.69;;;23.94;82.02
6514;BME280;3290;47.716;9.070;2022-09-03T12:02:06;96761.75;;;24.38;70.90
6514;BME280;3290;47.716;9.070;2022-09-03T12:10:40;96768.44;;;24.49;73.88
6514;BME280;3290;47.716;9.070;2022-09-03T12:18:34;96771.44;;;23.64;71.97
6514;BME280;3290;47.716;9.070;2022-09-03T12:21:03;96760.66;;;23.90;71.75
6514;BME280;3290;47.716;9.070;2022-09-03T12:23:39;96757.38;;;23.45;75.33
6514;BME280;3290;47.716;9.070;2022-09-03T12:26:12;96750.53;;;24.88;71.00
6514;BME280;3290;47.716;9.070;2022-09-03T12:28:40;96754.50;;;24.03;71.22
6514;BME280;3290;47.716;9.070;2022-09-03T12:31:09;96757.94;;;23.29;73.65
6514;BME280;3290;47.716;9.070;2022-09-03T12:33:44;96754.72;;;23.93;71.77
6514;BME280;3290;47.716;9.070;2022-09-03T12:36:10;96760.66;;;23.90;70.73
6514;BME280;3290;47.716;9.070;2022-09-03T12:38:35;96754.50;;;24.03;71.56
6514;BME280;3290;47.716;9.070;2022-09-03T12:41:00;96768.44;;;23.38;69.33
6514;BME280;3290;47.716;9.070;2022-09-03T12:43:27;96760.66;;;23.90;70.24
6514;BME280;3290;47.716;9.070;2022-09-03T12:45:53;96764.16;;;24.69;68.72
6514;BME280;3290;47.716;9.070;2022-09-03T12:48:20;96758.06;;;24.55;69.42
6514;BME280;3290;47.716;9.070;2022-09-03T12:50:48;96753.28;;;24.96;65.67
6514;BME280;3290;47.716;9.070;2022-09-03T12:53:21;96757.69;;;23.92;69.89
6514;BME280;3290;47.716;9.070;2022-09-03T12:55:51;96770.53;;;23.68;70.77
6514;BME280;3290;47.716;9.070;2022-09-03T13:03:32;96762.69;;;23.18;74.08
6514;BME280;3290;47.716;9.070;2022-09-03T13:06:08;96768.66;;;23.29;73.73
6514;BME280;3290;47.716;9.070;2022-09-03T13:08:45;96763.97;;;24.09;69.72
6514;BME280;3290;47.716;9.070;2022-09-03T13:11:15;96756.00;;;24.31;69.08
6514;BME280;3290;47.716;9.070;2022-09-03T13:13:51;96758.31;;;23.89;70.28
6514;BME280;3290;47.716;9.070;2022-09-03T13:21:48;96743.88;;;25.54;65.47
6514;BME280;3290;47.716;9.070;2022-09-03T13:30:07;96749.06;;;25.50;62.25
6514;BME280;3290;47.716;9.070;2022-09-03T13:32:54;96738.16;;;25.47;63.54
6514;BME280;3290;47.716;9.070;2022-09-03T13:35:38;96740.97;;;25.25;63.18
6514;BME280;3290;47.716;9.070;2022-09-03T13:43:13;96737.88;;;24.80;63.09
6514;BME280;3290;47.716;9.070;2022-09-03T13:45:50;96736.09;;;24.97;64.13
6514;BME280;3290;47.716;9.070;2022-09-03T13:51:37;96729.16;;;24.74;65.86
6514;BME280;3290;47.716;9.070;2022-09-03T13:59:30;96725.19;;;24.42;66.94
6514;BME280;3290;47.716;9.070;2022-09-03T14:02:06;96718.19;;;24.54;66.53
6514;BME280;3290;47.716;9.070;2022-09-03T14:07:33;96713.94;;;25.13;63.65
6514;BME280;3290;47.716;9.070;2022-09-03T14:16:06;96710.00;;;26.00;61.04
6514;BME280;3290;47.716;9.070;2022-09-03T14:19:00;96709.69;;;26.43;59.64
6514;BME280;3290;47.716;9.070;2022-09-03T14:21:57;96704.00;;;26.36;57.83
6514;BME280;3290;47.716;9.070;2022-09-03T14:24:24;96697.34;;;26.09;59.43
6514;BME280;3290;47.716;9.070;2022-09-03T14:26:55;96699.56;;;26.40;57.63
6514;BME280;3290;47.716;9.070;2022-09-03T14:29:29;96696.22;;;26.60;57.73
6514;BME280;3290;47.716;9.070;2022-09-03T15:08:06;96676.03;;;25.87;62.24
6514;BME280;3290;47.716;9.070;2022-09-03T15:10:45;96682.34;;;25.91;60.22
6514;BME280;3290;47.716;9.070;2022-09-03T15:13:22;96684.25;;;26.24;57.69
6514;BME280;3290;47.716;9.070;2022-09-03T15:27:11;96682.16;;;26.13;57.24
6514;BME280;3290;47.716;9.070;2022-09-03T15:29:50;96679.16;;;26.14;58.39
6514;BME280;3290;47.716;9.070;2022-09-03T15:40:53;96673.31;;;26.20;58.92
6514;BME280;3290;47.716;9.070;2022-09-03T15:43:32;96689.06;;;26.64;56.18
6514;BME280;3290;47.716;9.070;2022-09-03T15:45:58;96690.84;;;26.60;57.95
6514;BME280;3290;47.716;9.070;2022-09-03T15:48:50;96688.19;;;26.01;57.65
6514;BME280;3290;47.716;9.070;2022-09-03T15:51:29;96697.59;;;26.66;54.77
6514;BME280;3290;47.716;9.070;2022-09-03T15:59:11;96694.25;;;26.86;54.59
6514;BME280;3290;47.716;9.070;2022-09-03T16:01:56;96694.16;;;27.11;53.21
6514;BME280;3290;47.716;9.070;2022-09-03T16:07:29;96690.09;;;26.43;55.63
6514;BME280;3290;47.716;9.070;2022-09-03T16:12:38;96700.00;;;26.51;54.20
6514;BME280;3290;47.716;9.070;2022-09-03T16:16:01;96698.63;;;26.45;55.15
6514;BME280;3290;47.716;9.070;2022-09-03T16:18:33;96694.03;;;26.20;55.73
6514;BME280;3290;47.716;9.070;2022-09-03T16:21:14;96694.03;;;26.37;57.16
6514;BME280;3290;47.716;9.070;2022-09-03T16:24:04;96691.50;;;26.40;56.54
6514;BME280;3290;47.716;9.070;2022-09-03T16:26:39;96701.34;;;26.99;56.28
6514;BME280;3290;47.716;9.070;2022-09-03T16:29:12;96697.22;;;26.93;54.79
6514;BME280;3290;47.716;9.070;2022-09-03T16:37:14;96694.66;;;26.17;57.99
6514;BME280;3290;47.716;9.070;2022-09-03T16:40:12;96705.81;;;26.69;56.34
6514;BME280;3290;47.716;9.070;2022-09-03T16:48:28;96711.88;;;25.91;57.07
6514;BME280;3290;47.716;9.070;2022-09-03T16:51:41;96715.22;;;25.96;58.29
6514;BME280;3290;47.716;9.070;2022-09-03T16:54:29;96721.84;;;25.82;58.86
6514;BME280;3290;47.716;9.070;2022-09-03T17:02:23;96716.63;;;26.11;59.25
6514;BME280;3290;47.716;9.070;2022-09-03T17:07:38;96715.59;;;25.39;60.67
6514;BME280;3290;47.716;9.070;2022-09-03T17:10:19;96715.19;;;25.16;62.16
6514;BME280;3290;47.716;9.070;2022-09-03T17:18:15;96717.44;;;25.22;61.13
6514;BME280;3290;47.716;9.070;2022-09-03T17:23:52;96720.00;;;24.97;64.79
6514;BME280;3290;47.716;9.070;2022-09-03T17:26:46;96728.72;;;24.51;69.12
6514;BME280;3290;47.716;9.070;2022-09-03T17:32:24;96723.91;;;24.61;72.32
6514;BME280;3290;47.716;9.070;2022-09-03T17:37:57;96724.03;;;23.77;77.88
6514;BME280;3290;47.716;9.070;2022-09-03T17:46:13;96724.25;;;23.54;80.23
6514;BME280;3290;47.716;9.070;2022-09-03T17:48:50;96734.56;;;23.34;81.13
6514;BME280;3290;47.716;9.070;2022-09-03T17:57:01;96725.25;;;23.18;82.13
6514;BME280;3290;47.716;9.070;2022-09-03T17:59:51;96723.00;;;22.98;83.46
6514;BME280;3290;47.716;9.070;2022-09-03T18:07:25;96737.88;;;22.73;86.16
6514;BME280;3290;47.716;9.070;2022-09-03T18:10:05;96741.66;;;22.72;86.21
6514;BME280;3290;47.716;9.070;2022-09-03T18:15:26;96750.31;;;22.64;87.50
6514;BME280;3290;47.716;9.070;2022-09-03T18:18:23;96753.50;;;22.66;87.56